Time;durP1;ratioP1;P1;durP2;ratioP2;P2;SDS_P1;SDS_P2;PMS_P1;PMS_P2;Temp;Humidity;BMP_temperature;BMP_pressure;BME280_temperature;BME280_humidity;BME280_pressure;Samples;Min_cycle;Max_cycle;Signal;HPM_P1;HPM_P2
2023/01/05 00:00:00;;;;;;;0.8;0.8;;;;;;;10.2;100.0;101420;;;;
2023/01/05 00:01:04;;;;;;;0.8;0.8;;;;;;;10.2;100.0;101420;;;;
2023/01/05 00:02:00;;;;;;;0.8;0.8;;;;;;;10.4;100.0;101430;;;;
2023/01/05 00:03:00;;;;;;;0.8;0.8;;;;;;;10.4;100.0;101430;;;;
2023/01/05 00:04:00;;;;;;;0.8;0.8;;;;;;;10.3;100.0;101430;;;;
2023/01/05 00:05:00;;;;;;;0.8;0.8;;;;;;;10.3;100.0;101430;;;;
2023/01/05 00:06:00;;;;;;;0.8;0.8;;;;;;;10.3;100.0;101420;;;;
2023/01/05 00:07:00;;;;;;;0.8;0.8;;;;;;;10.3;100.0;101420;;;;
2023/01/05 00:08:00;;;;;;;0.8;0.8;;;;;;;10.4;100.0;101430;;;;
2023/01/05 00:09:00;;;;;;;0.8;0.8;;;;;;;10.4;100.0;101430;;;;
2023/01/05 00:10:00;;;;;;;0.8;0.8;;;;;;;10.3;100.0;101420;;;;
2023/01/05 00:23:00;;;;;;;0.9;0.9;;;;;;;10.4;100.0;101420;;;;
2023/01/05 00:24:00;;;;;;;0.9;0.9;;;;;;;10.3;100.0;101420;;;;
2023/01/05 00:25:11;;;;;;;0.9;0.9;;;;;;;10.3;100.0;101420;;;;
2023/01/05 00:26:00;;;;;;;0.9;0.9;;;;;;;10.3;100.0;101410;;;;
2023/01/05 00:27:00;;;;;;;0.9;0.9;;;;;;;10.3;100.0;101410;;;;
2023/01/05 00:28:00;;;;;;;0.9;0.9;;;;;;;10.3;100.0;101420;;;;
2023/01/05 00:29:00;;;;;;;0.9;0.9;;;;;;;10.3;100.0;101420;;;;
2023/01/05 00:30:00;;;;;;;0.9;0.9;;;;;;;10.3;100.0;101430;;;;
2023/01/05 00:31:00;;;;;;;0.9;0.9;;;;;;;10.3;100.0;101430;;;;
2023/01/05 00:32:00;;;;;;;0.9;0.9;;;;;;;10.2;100.0;101420;;;;
2023/01/05 00:33:00;;;;;;;0.9;0.9;;;;;;;10.2;100.0;101420;;;;
2023/01/05 00:34:00;;;;;;;0.9;0.9;;;;;;;10.3;100.0;101420;;;;
2023/01/05 00:35:01;;;;;;;0.9;0.9;;;;;;;10.3;100.0;101420;;;;
2023/01/05 00:36:00;;;;;;;0.9;0.9;;;;;;;10.3;100.0;101420;;;;
2023/01/05 00:37:00;;;;;;;0.9;0.9;;;;;;;10.3;100.0;101420;;;;
2023/01/05 00:38:00;;;;;;;0.9;0.9;;;;;;;10.2;100.0;101420;;;;
2023/01/05 00:39:00;;;;;;;0.9;0.9;;;;;;;10.2;100.0;101420;;;;
2023/01/05 00:40:00;;;;;;;0.8;0.8;;;;;;;10.3;100.0;101420;;;;
2023/01/05 00:41:00;;;;;;;0.8;0.8;;;;;;;10.3;100.0;101420;;;;
2023/01/05 00:42:00;;;;;;;0.8;0.8;;;;;;;10.3;100.0;101430;;;;
2023/01/05 00:43:00;;;;;;;0.8;0.8;;;;;;;10.3;100.0;101430;;;;
2023/01/05 00:44:00;;;;;;;0.8;0.8;;;;;;;10.3;100.0;101410;;;;
2023/01/05 00:45:00;;;;;;;0.8;0.8;;;;;;;10.3;100.0;101410;;;;
2023/01/05 00:46:00;;;;;;;0.8;0.8;;;;;;;10.3;100.0;101410;;;;
2023/01/05 00:47:00;;;;;;;0.8;0.8;;;;;;;10.3;100.0;101410;;;;
2023/01/05 00:48:00;;;;;;;0.8;0.8;;;;;;;10.3;100.0;101420;;;;
2023/01/05 00:49:00;;;;;;;0.8;0.8;;;;;;;10.3;100.0;101420;;;;
2023/01/05 00:50:00;;;;;;;0.8;0.8;;;;;;;10.2;100.0;101420;;;;
2023/01/05 00:51:00;;;;;;;0.8;0.8;;;;;;;10.2;100.0;101420;;;;
2023/01/05 00:52:00;;;;;;;0.8;0.8;;;;;;;10.2;100.0;101420;;;;
2023/01/05 00:53:00;;;;;;;0.8;0.8;;;;;;;10.2;100.0;101420;;;;
2023/01/05 00:54:00;;;;;;;0.8;0.8;;;;;;;10.2;100.0;101430;;;;
2023/01/05 00:55:00;;;;;;;0.8;0.8;;;;;;;10.2;100.0;101430;;;;
2023/01/05 00:56:00;;;;;;;0.8;0.8;;;;;;;10.2;100.0;101420;;;;
2023/01/05 00:57:00;;;;;;;0.8;0.8;;;;;;;10.2;100.0;101420;;;;
2023/01/05 00:58:00;;;;;;;0.8;0.8;;;;;;;10.2;100.0;101420;;;;
2023/01/05 00:59:00;;;;;;;0.8;0.8;;;;;;;10.2;100.0;101420;;;;
2023/01/05 01:00:01;;;;;;;1.3;1.3;;;;;;;10.1;100.0;101430;;;;
2023/01/05 01:01:00;;;;;;;1.3;1.3;;;;;;;10.1;100.0;101430;;;;
2023/01/05 01:02:00;;;;;;;1.3;1.3;;;;;;;10.1;100.0;101420;;;;
2023/01/05 01:03:00;;;;;;;1.3;1.3;;;;;;;10.1;100.0;101420;;;;
2023/01/05 01:04:00;;;;;;;1.3;1.3;;;;;;;10.1;100.0;101430;;;;
2023/01/05 01:05:00;;;;;;;1.3;1.3;;;;;;;10.1;100.0;101430;;;;
2023/01/05 01:06:00;;;;;;;1.3;1.3;;;;;;;10.1;100.0;101420;;;;
2023/01/05 01:07:01;;;;;;;1.3;1.3;;;;;;;10.1;100.0;101420;;;;
2023/01/05 01:08:00;;;;;;;1.3;1.3;;;;;;;10.1;100.0;101440;;;;
2023/01/05 01:09:00;;;;;;;1.3;1.3;;;;;;;10.1;100.0;101440;;;;
2023/01/05 01:10:00;;;;;;;1.3;1.3;;;;;;;10.1;100.0;101440;;;;
2023/01/05 01:11:08;;;;;;;1.3;1.3;;;;;;;10.1;100.0;101440;;;;
2023/01/05 01:12:00;;;;;;;1.3;1.3;;;;;;;10.0;100.0;101440;;;;
2023/01/05 01:13:00;;;;;;;1.3;1.3;;;;;;;10.0;100.0;101440;;;;
2023/01/05 01:14:00;;;;;;;1.3;1.3;;;;;;;10.0;100.0;101440;;;;
2023/01/05 01:15:00;;;;;;;1.3;1.3;;;;;;;10.0;100.0;101440;;;;
2023/01/05 01:16:08;;;;;;;1.3;1.3;;;;;;;9.9;100.0;101440;;;;
2023/01/05 01:17:00;;;;;;;1.3;1.3;;;;;;;9.9;100.0;101440;;;;
2023/01/05 01:18:00;;;;;;;1.3;1.3;;;;;;;9.9;100.0;101430;;;;
2023/01/05 01:19:05;;;;;;;1.3;1.3;;;;;;;9.9;100.0;101430;;;;
2023/01/05 01:20:00;;;;;;;0.8;0.8;;;;;;;9.9;100.0;101430;;;;
2023/01/05 01:21:00;;;;;;;0.8;0.8;;;;;;;9.9;100.0;101430;;;;
2023/01/05 01:22:00;;;;;;;0.8;0.8;;;;;;;9.8;100.0;101440;;;;
2023/01/05 01:23:02;;;;;;;0.8;0.8;;;;;;;9.8;100.0;101440;;;;
2023/01/05 01:24:00;;;;;;;0.8;0.8;;;;;;;9.9;100.0;101440;;;;
2023/01/05 01:25:00;;;;;;;0.8;0.8;;;;;;;9.9;100.0;101440;;;;
2023/01/05 01:26:04;;;;;;;0.8;0.8;;;;;;;9.8;100.0;101440;;;;
2023/01/05 01:27:00;;;;;;;0.8;0.8;;;;;;;9.8;100.0;101440;;;;
2023/01/05 01:28:00;;;;;;;0.8;0.8;;;;;;;9.8;100.0;101440;;;;
2023/01/05 01:29:00;;;;;;;0.8;0.8;;;;;;;9.8;100.0;101440;;;;
2023/01/05 01:30:00;;;;;;;0.8;0.8;;;;;;;9.8;100.0;101450;;;;
2023/01/05 01:31:00;;;;;;;0.8;0.8;;;;;;;9.8;100.0;101450;;;;
2023/01/05 01:32:00;;;;;;;0.8;0.8;;;;;;;9.8;100.0;101450;;;;
2023/01/05 01:33:00;;;;;;;0.8;0.8;;;;;;;9.8;100.0;101450;;;;
2023/01/05 01:34:00;;;;;;;0.8;0.8;;;;;;;9.8;100.0;101450;;;;
2023/01/05 01:35:00;;;;;;;0.8;0.8;;;;;;;9.8;100.0;101450;;;;
2023/01/05 01:36:04;;;;;;;0.8;0.8;;;;;;;9.7;100.0;101460;;;;
2023/01/05 01:37:00;;;;;;;0.8;0.8;;;;;;;9.7;100.0;101460;;;;
2023/01/05 01:38:00;;;;;;;0.8;0.8;;;;;;;9.7;100.0;101460;;;;
2023/01/05 01:39:00;;;;;;;0.8;0.8;;;;;;;9.7;100.0;101460;;;;
2023/01/05 01:40:00;;;;;;;0.9;0.9;;;;;;;9.8;100.0;101450;;;;
2023/01/05 01:41:00;;;;;;;0.9;0.9;;;;;;;9.8;100.0;101450;;;;
2023/01/05 01:42:00;;;;;;;0.9;0.9;;;;;;;9.7;100.0;101460;;;;
2023/01/05 01:43:00;;;;;;;0.9;0.9;;;;;;;9.7;100.0;101460;;;;
2023/01/05 01:44:00;;;;;;;0.9;0.9;;;;;;;9.6;100.0;101460;;;;
2023/01/05 01:45:01;;;;;;;0.9;0.9;;;;;;;9.6;100.0;101460;;;;
2023/01/05 01:46:00;;;;;;;0.9;0.9;;;;;;;9.7;100.0;101460;;;;
2023/01/05 01:47:00;;;;;;;0.9;0.9;;;;;;;9.7;100.0;101460;;;;
2023/01/05 01:48:00;;;;;;;0.9;0.9;;;;;;;9.7;100.0;101470;;;;
2023/01/05 01:49:02;;;;;;;0.9;0.9;;;;;;;9.7;100.0;101470;;;;
2023/01/05 01:50:02;;;;;;;0.9;0.9;;;;;;;9.7;100.0;101470;;;;
2023/01/05 01:51:09;;;;;;;0.9;0.9;;;;;;;9.7;100.0;101470;;;;
2023/01/05 01:52:00;;;;;;;0.9;0.9;;;;;;;9.6;100.0;101470;;;;
2023/01/05 01:53:05;;;;;;;0.9;0.9;;;;;;;9.6;100.0;101470;;;;
2023/01/05 01:54:02;;;;;;;0.9;0.9;;;;;;;9.7;100.0;101490;;;;
2023/01/05 01:55:01;;;;;;;0.9;0.9;;;;;;;9.7;100.0;101490;;;;
2023/01/05 01:56:02;;;;;;;0.9;0.9;;;;;;;9.7;100.0;101490;;;;
2023/01/05 01:57:00;;;;;;;0.9;0.9;;;;;;;9.7;100.0;101490;;;;
2023/01/05 01:58:02;;;;;;;0.9;0.9;;;;;;;9.7;100.0;101490;;;;
2023/01/05 01:59:00;;;;;;;0.9;0.9;;;;;;;9.7;100.0;101490;;;;
2023/01/05 02:00:01;;;;;;;0.9;0.9;;;;;;;9.7;100.0;101490;;;;
2023/01/05 02:01:00;;;;;;;0.9;0.9;;;;;;;9.7;100.0;101490;;;;
2023/01/05 02:02:00;;;;;;;0.9;0.9;;;;;;;9.8;100.0;101490;;;;
2023/01/05 02:03:00;;;;;;;0.9;0.9;;;;;;;9.8;100.0;101490;;;;
2023/01/05 02:04:00;;;;;;;0.9;0.9;;;;;;;9.8;100.0;101500;;;;
2023/01/05 02:05:03;;;;;;;0.9;0.9;;;;;;;9.8;100.0;101500;;;;
2023/01/05 02:06:00;;;;;;;0.9;0.9;;;;;;;9.9;100.0;101500;;;;
2023/01/05 02:07:01;;;;;;;0.9;0.9;;;;;;;9.9;100.0;101500;;;;
2023/01/05 02:08:00;;;;;;;0.9;0.9;;;;;;;9.9;100.0;101500;;;;
2023/01/05 02:09:00;;;;;;;0.9;0.9;;;;;;;9.9;100.0;101500;;;;
2023/01/05 02:10:01;;;;;;;0.9;0.9;;;;;;;9.9;100.0;101500;;;;
2023/01/05 02:11:10;;;;;;;0.9;0.9;;;;;;;9.9;100.0;101500;;;;
2023/01/05 02:12:05;;;;;;;0.9;0.9;;;;;;;9.9;100.0;101490;;;;
2023/01/05 02:13:07;;;;;;;0.9;0.9;;;;;;;9.9;100.0;101490;;;;
2023/01/05 02:14:05;;;;;;;0.9;0.9;;;;;;;9.8;100.0;101490;;;;
2023/01/05 02:15:10;;;;;;;0.9;0.9;;;;;;;9.8;100.0;101490;;;;
2023/01/05 02:16:10;;;;;;;0.9;0.9;;;;;;;9.8;100.0;101490;;;;
2023/01/05 02:17:00;;;;;;;0.9;0.9;;;;;;;9.8;100.0;101490;;;;
2023/01/05 02:18:03;;;;;;;0.9;0.9;;;;;;;9.8;100.0;101490;;;;
2023/01/05 02:19:08;;;;;;;0.9;0.9;;;;;;;9.8;100.0;101490;;;;
2023/01/05 02:20:10;;;;;;;1.0;1.0;;;;;;;10.0;100.0;101500;;;;
2023/01/05 02:21:00;;;;;;;1.0;1.0;;;;;;;10.0;100.0;101500;;;;
2023/01/05 02:22:03;;;;;;;1.0;1.0;;;;;;;9.9;100.0;101500;;;;
2023/01/05 02:23:10;;;;;;;1.0;1.0;;;;;;;9.9;100.0;101500;;;;
2023/01/05 02:24:10;;;;;;;1.0;1.0;;;;;;;9.9;100.0;101500;;;;
2023/01/05 02:25:07;;;;;;;1.0;1.0;;;;;;;9.9;100.0;101500;;;;
2023/01/05 02:26:10;;;;;;;1.0;1.0;;;;;;;9.9;100.0;101500;;;;
2023/01/05 02:27:00;;;;;;;1.0;1.0;;;;;;;9.9;100.0;101500;;;;
2023/01/05 02:28:01;;;;;;;1.0;1.0;;;;;;;9.9;100.0;101510;;;;
2023/01/05 02:29:10;;;;;;;1.0;1.0;;;;;;;9.9;100.0;101510;;;;
2023/01/05 02:30:10;;;;;;;1.0;1.0;;;;;;;9.9;100.0;101500;;;;
2023/01/05 02:31:06;;;;;;;1.0;1.0;;;;;;;9.9;100.0;101500;;;;
2023/01/05 02:32:09;;;;;;;1.0;1.0;;;;;;;9.9;100.0;101500;;;;
2023/01/05 02:33:08;;;;;;;1.0;1.0;;;;;;;9.9;100.0;101500;;;;
2023/01/05 02:34:06;;;;;;;1.0;1.0;;;;;;;9.9;100.0;101500;;;;
2023/01/05 02:35:08;;;;;;;1.0;1.0;;;;;;;9.9;100.0;101500;;;;
2023/01/05 02:36:10;;;;;;;1.0;1.0;;;;;;;9.9;100.0;101500;;;;
2023/01/05 02:37:06;;;;;;;1.0;1.0;;;;;;;9.9;100.0;101500;;;;
2023/01/05 02:38:04;;;;;;;1.0;1.0;;;;;;;9.9;100.0;101490;;;;
2023/01/05 02:39:03;;;;;;;1.0;1.0;;;;;;;9.9;100.0;101490;;;;
2023/01/05 02:40:05;;;;;;;1.0;1.0;;;;;;;9.9;100.0;101490;;;;
2023/01/05 02:41:10;;;;;;;1.0;1.0;;;;;;;9.9;100.0;101490;;;;
2023/01/05 02:42:07;;;;;;;1.0;1.0;;;;;;;9.8;100.0;101490;;;;
2023/01/05 02:43:01;;;;;;;1.0;1.0;;;;;;;9.8;100.0;101490;;;;
2023/01/05 02:44:01;;;;;;;1.0;1.0;;;;;;;9.9;100.0;101500;;;;
2023/01/05 02:45:01;;;;;;;1.0;1.0;;;;;;;9.9;100.0;101500;;;;
2023/01/05 02:46:00;;;;;;;1.0;1.0;;;;;;;9.9;100.0;101500;;;;
2023/01/05 02:47:03;;;;;;;1.0;1.0;;;;;;;9.9;100.0;101500;;;;
2023/01/05 02:48:00;;;;;;;1.0;1.0;;;;;;;9.9;100.0;101490;;;;
2023/01/05 02:49:02;;;;;;;1.0;1.0;;;;;;;9.9;100.0;101490;;;;
2023/01/05 02:50:03;;;;;;;1.0;1.0;;;;;;;9.9;100.0;101500;;;;
2023/01/05 02:51:04;;;;;;;1.0;1.0;;;;;;;9.9;100.0;101500;;;;
2023/01/05 02:52:01;;;;;;;1.0;1.0;;;;;;;9.9;100.0;101500;;;;
2023/01/05 02:53:01;;;;;;;1.0;1.0;;;;;;;9.9;100.0;101500;;;;
2023/01/05 02:54:03;;;;;;;1.0;1.0;;;;;;;9.9;100.0;101500;;;;
2023/01/05 02:55:04;;;;;;;1.0;1.0;;;;;;;9.9;100.0;101500;;;;
2023/01/05 02:56:05;;;;;;;1.0;1.0;;;;;;;10.0;100.0;101500;;;;
2023/01/05 02:57:04;;;;;;;1.0;1.0;;;;;;;10.0;100.0;101500;;;;
2023/01/05 02:58:04;;;;;;;1.0;1.0;;;;;;;10.0;100.0;101500;;;;
2023/01/05 02:59:03;;;;;;;1.0;1.0;;;;;;;10.0;100.0;101500;;;;
2023/01/05 03:00:01;;;;;;;1.0;1.0;;;;;;;10.0;100.0;101510;;;;
2023/01/05 03:01:05;;;;;;;1.0;1.0;;;;;;;10.0;100.0;101510;;;;
2023/01/05 03:02:04;;;;;;;1.0;1.0;;;;;;;10.1;100.0;101510;;;;
2023/01/05 03:03:05;;;;;;;1.0;1.0;;;;;;;10.1;100.0;101510;;;;
2023/01/05 03:04:03;;;;;;;1.0;1.0;;;;;;;10.1;100.0;101510;;;;
2023/01/05 03:05:03;;;;;;;1.0;1.0;;;;;;;10.1;100.0;101510;;;;
2023/01/05 03:06:03;;;;;;;1.0;1.0;;;;;;;10.1;100.0;101500;;;;
2023/01/05 03:07:03;;;;;;;1.0;1.0;;;;;;;10.1;100.0;101500;;;;
2023/01/05 03:08:09;;;;;;;1.0;1.0;;;;;;;10.0;100.0;101500;;;;
2023/01/05 03:09:01;;;;;;;1.0;1.0;;;;;;;10.0;100.0;101500;;;;
2023/01/05 03:13:39;;;;;;;1.0;1.0;;;;;;;10.0;100.0;101500;;;;
2023/01/05 03:14:08;;;;;;;1.0;1.0;;;;;;;9.9;100.0;101490;;;;
2023/01/05 03:15:00;;;;;;;1.0;1.0;;;;;;;9.9;100.0;101490;;;;
2023/01/05 03:16:01;;;;;;;1.0;1.0;;;;;;;9.8;100.0;101490;;;;
2023/01/05 03:17:01;;;;;;;1.0;1.0;;;;;;;9.8;100.0;101490;;;;
2023/01/05 03:18:04;;;;;;;1.0;1.0;;;;;;;9.9;100.0;101500;;;;
2023/01/05 03:20:01;;;;;;;0.9;0.9;;;;;;;9.8;100.0;101510;;;;
2023/01/05 03:21:00;;;;;;;0.9;0.9;;;;;;;9.8;100.0;101510;;;;
2023/01/05 03:36:02;;;;;;;0.9;0.9;;;;;;;10.0;100.0;101510;;;;
2023/01/05 03:37:02;;;;;;;0.9;0.9;;;;;;;10.0;100.0;101510;;;;
2023/01/05 03:38:17;;;;;;;0.9;0.9;;;;;;;10.1;100.0;101510;;;;
2023/01/05 03:39:01;;;;;;;0.7;0.7;;;;;;;10.1;100.0;101510;;;;
2023/01/05 03:40:01;;;;;;;0.7;0.7;;;;;;;10.0;100.0;101510;;;;
2023/01/05 03:41:02;;;;;;;0.7;0.7;;;;;;;10.0;100.0;101510;;;;
2023/01/05 03:42:00;;;;;;;0.7;0.7;;;;;;;9.9;100.0;101510;;;;
2023/01/05 03:43:01;;;;;;;0.7;0.7;;;;;;;9.9;100.0;101510;;;;
2023/01/05 03:44:00;;;;;;;0.7;0.7;;;;;;;9.9;100.0;101500;;;;
2023/01/05 03:45:00;;;;;;;0.7;0.7;;;;;;;9.9;100.0;101500;;;;
2023/01/05 03:46:00;;;;;;;0.7;0.7;;;;;;;9.9;100.0;101510;;;;
2023/01/05 03:47:00;;;;;;;0.7;0.7;;;;;;;9.9;100.0;101510;;;;
2023/01/05 03:48:00;;;;;;;0.7;0.7;;;;;;;10.0;100.0;101510;;;;
2023/01/05 03:49:00;;;;;;;0.7;0.7;;;;;;;10.0;100.0;101510;;;;
2023/01/05 03:50:00;;;;;;;0.7;0.7;;;;;;;10.0;100.0;101510;;;;
2023/01/05 03:51:00;;;;;;;0.7;0.7;;;;;;;10.0;100.0;101510;;;;
2023/01/05 03:52:00;;;;;;;0.7;0.7;;;;;;;10.0;100.0;101500;;;;
2023/01/05 03:53:00;;;;;;;0.7;0.7;;;;;;;10.0;100.0;101500;;;;
2023/01/05 03:54:00;;;;;;;0.7;0.7;;;;;;;9.9;100.0;101500;;;;
2023/01/05 03:55:00;;;;;;;0.7;0.7;;;;;;;9.9;100.0;101500;;;;
2023/01/05 03:56:00;;;;;;;0.7;0.7;;;;;;;9.9;100.0;101500;;;;
2023/01/05 03:57:00;;;;;;;0.7;0.7;;;;;;;9.9;100.0;101500;;;;
2023/01/05 03:58:00;;;;;;;0.7;0.7;;;;;;;9.9;100.0;101510;;;;
2023/01/05 03:59:00;;;;;;;0.9;0.9;;;;;;;9.9;100.0;101510;;;;
2023/01/05 04:00:00;;;;;;;0.9;0.9;;;;;;;10.0;100.0;101500;;;;
2023/01/05 04:01:00;;;;;;;0.9;0.9;;;;;;;10.0;100.0;101500;;;;
2023/01/05 04:02:00;;;;;;;0.9;0.9;;;;;;;10.1;100.0;101500;;;;
2023/01/05 04:03:00;;;;;;;0.9;0.9;;;;;;;10.1;100.0;101500;;;;
2023/01/05 04:04:00;;;;;;;0.9;0.9;;;;;;;10.1;100.0;101510;;;;
2023/01/05 04:05:00;;;;;;;0.9;0.9;;;;;;;10.1;100.0;101510;;;;
2023/01/05 04:06:00;;;;;;;0.9;0.9;;;;;;;10.0;100.0;101510;;;;
2023/01/05 04:07:00;;;;;;;0.9;0.9;;;;;;;10.0;100.0;101510;;;;
2023/01/05 04:08:00;;;;;;;0.9;0.9;;;;;;;10.1;100.0;101510;;;;
2023/01/05 04:09:00;;;;;;;0.9;0.9;;;;;;;10.1;100.0;101510;;;;
2023/01/05 04:10:00;;;;;;;0.9;0.9;;;;;;;10.1;100.0;101520;;;;
2023/01/05 04:11:10;;;;;;;0.9;0.9;;;;;;;10.1;100.0;101520;;;;
2023/01/05 04:12:00;;;;;;;0.9;0.9;;;;;;;10.1;100.0;101510;;;;
2023/01/05 04:13:00;;;;;;;0.9;0.9;;;;;;;10.1;100.0;101510;;;;
2023/01/05 04:14:00;;;;;;;0.9;0.9;;;;;;;10.1;100.0;101510;;;;
2023/01/05 04:15:00;;;;;;;0.9;0.9;;;;;;;10.1;100.0;101510;;;;
2023/01/05 04:16:00;;;;;;;0.9;0.9;;;;;;;10.0;100.0;101510;;;;
2023/01/05 04:17:00;;;;;;;0.9;0.9;;;;;;;10.0;100.0;101510;;;;
2023/01/05 04:18:00;;;;;;;0.9;0.9;;;;;;;10.0;100.0;101520;;;;
2023/01/05 04:19:00;;;;;;;0.9;0.9;;;;;;;10.0;100.0;101520;;;;
2023/01/05 04:20:00;;;;;;;0.9;0.9;;;;;;;10.1;100.0;101520;;;;
2023/01/05 04:21:00;;;;;;;0.9;0.9;;;;;;;10.1;100.0;101520;;;;
2023/01/05 04:22:00;;;;;;;0.9;0.9;;;;;;;10.1;100.0;101510;;;;
2023/01/05 04:23:00;;;;;;;0.9;0.9;;;;;;;10.1;100.0;101510;;;;
2023/01/05 04:24:00;;;;;;;0.9;0.9;;;;;;;10.1;100.0;101510;;;;
2023/01/05 04:25:00;;;;;;;0.9;0.9;;;;;;;10.1;100.0;101510;;;;
2023/01/05 04:26:00;;;;;;;0.9;0.9;;;;;;;10.1;100.0;101520;;;;
2023/01/05 04:27:00;;;;;;;0.9;0.9;;;;;;;10.1;100.0;101520;;;;
2023/01/05 04:28:00;;;;;;;0.9;0.9;;;;;;;10.1;100.0;101520;;;;
2023/01/05 04:29:00;;;;;;;0.9;0.9;;;;;;;10.1;100.0;101520;;;;
2023/01/05 04:30:00;;;;;;;0.9;0.9;;;;;;;10.0;100.0;101520;;;;
2023/01/05 04:31:00;;;;;;;0.9;0.9;;;;;;;10.0;100.0;101520;;;;
2023/01/05 04:32:00;;;;;;;0.9;0.9;;;;;;;10.1;100.0;101530;;;;
2023/01/05 04:33:00;;;;;;;0.9;0.9;;;;;;;10.1;100.0;101530;;;;
2023/01/05 04:34:00;;;;;;;0.9;0.9;;;;;;;10.1;100.0;101520;;;;
2023/01/05 04:35:10;;;;;;;0.9;0.9;;;;;;;10.1;100.0;101520;;;;
2023/01/05 04:36:00;;;;;;;0.9;0.9;;;;;;;10.1;100.0;101530;;;;
2023/01/05 04:37:00;;;;;;;0.9;0.9;;;;;;;10.1;100.0;101530;;;;
2023/01/05 04:38:00;;;;;;;0.9;0.9;;;;;;;10.1;100.0;101520;;;;
2023/01/05 04:39:00;;;;;;;0.9;0.9;;;;;;;10.1;100.0;101520;;;;
2023/01/05 04:40:00;;;;;;;0.9;0.9;;;;;;;10.2;100.0;101520;;;;
2023/01/05 04:41:00;;;;;;;0.9;0.9;;;;;;;10.2;100.0;101520;;;;
2023/01/05 04:42:00;;;;;;;0.9;0.9;;;;;;;10.3;100.0;101520;;;;
2023/01/05 04:43:00;;;;;;;0.9;0.9;;;;;;;10.3;100.0;101520;;;;
2023/01/05 04:44:00;;;;;;;0.9;0.9;;;;;;;10.3;100.0;101520;;;;
2023/01/05 04:45:00;;;;;;;0.9;0.9;;;;;;;10.3;100.0;101520;;;;
2023/01/05 04:46:00;;;;;;;0.9;0.9;;;;;;;10.2;100.0;101530;;;;
2023/01/05 04:47:00;;;;;;;0.9;0.9;;;;;;;10.2;100.0;101530;;;;
2023/01/05 04:48:00;;;;;;;0.9;0.9;;;;;;;10.1;100.0;101520;;;;
2023/01/05 04:49:00;;;;;;;0.9;0.9;;;;;;;10.1;100.0;101520;;;;
2023/01/05 04:50:00;;;;;;;0.9;0.9;;;;;;;10.1;100.0;101520;;;;
2023/01/05 04:51:00;;;;;;;0.9;0.9;;;;;;;10.1;100.0;101520;;;;
2023/01/05 04:52:00;;;;;;;0.9;0.9;;;;;;;10.2;100.0;101530;;;;
2023/01/05 04:53:00;;;;;;;0.9;0.9;;;;;;;10.2;100.0;101530;;;;
2023/01/05 04:54:00;;;;;;;0.9;0.9;;;;;;;10.1;100.0;101520;;;;
2023/01/05 04:55:00;;;;;;;0.9;0.9;;;;;;;10.1;100.0;101520;;;;
2023/01/05 04:56:00;;;;;;;0.9;0.9;;;;;;;10.2;100.0;101520;;;;
2023/01/05 04:57:03;;;;;;;0.9;0.9;;;;;;;10.2;100.0;101520;;;;
2023/01/05 04:58:00;;;;;;;0.9;0.9;;;;;;;10.2;100.0;101520;;;;
2023/01/05 04:59:00;;;;;;;1.1;1.1;;;;;;;10.2;100.0;101520;;;;
2023/01/05 05:00:01;;;;;;;1.1;1.1;;;;;;;10.2;100.0;101520;;;;
2023/01/05 05:01:00;;;;;;;1.1;1.1;;;;;;;10.2;100.0;101520;;;;
2023/01/05 05:02:00;;;;;;;1.1;1.1;;;;;;;10.2;100.0;101520;;;;
2023/01/05 05:03:01;;;;;;;1.1;1.1;;;;;;;10.2;100.0;101520;;;;
2023/01/05 05:04:00;;;;;;;1.1;1.1;;;;;;;10.1;100.0;101530;;;;
2023/01/05 05:05:00;;;;;;;1.1;1.1;;;;;;;10.1;100.0;101530;;;;
2023/01/05 05:06:00;;;;;;;1.1;1.1;;;;;;;10.1;100.0;101520;;;;
2023/01/05 05:07:00;;;;;;;1.1;1.1;;;;;;;10.1;100.0;101520;;;;
2023/01/05 05:08:00;;;;;;;1.1;1.1;;;;;;;10.1;100.0;101530;;;;
2023/01/05 05:09:00;;;;;;;1.1;1.1;;;;;;;10.1;100.0;101530;;;;
2023/01/05 05:10:00;;;;;;;1.1;1.1;;;;;;;10.3;100.0;101530;;;;
2023/01/05 05:11:00;;;;;;;1.1;1.1;;;;;;;10.3;100.0;101530;;;;
2023/01/05 05:12:00;;;;;;;1.1;1.1;;;;;;;10.3;100.0;101530;;;;
2023/01/05 05:13:00;;;;;;;1.1;1.1;;;;;;;10.3;100.0;101530;;;;
2023/01/05 05:14:00;;;;;;;1.1;1.1;;;;;;;10.2;100.0;101530;;;;
2023/01/05 05:15:00;;;;;;;1.1;1.1;;;;;;;10.2;100.0;101530;;;;
2023/01/05 05:16:00;;;;;;;1.1;1.1;;;;;;;10.1;100.0;101530;;;;
2023/01/05 05:17:00;;;;;;;1.1;1.1;;;;;;;10.1;100.0;101530;;;;
2023/01/05 05:18:08;;;;;;;1.1;1.1;;;;;;;10.1;100.0;101540;;;;
2023/01/05 05:19:00;;;;;;;0.8;0.8;;;;;;;10.1;100.0;101540;;;;
2023/01/05 05:20:00;;;;;;;0.8;0.8;;;;;;;10.2;100.0;101550;;;;
2023/01/05 05:21:00;;;;;;;0.8;0.8;;;;;;;10.2;100.0;101550;;;;
2023/01/05 05:22:00;;;;;;;0.8;0.8;;;;;;;10.3;100.0;101550;;;;
2023/01/05 05:23:00;;;;;;;0.8;0.8;;;;;;;10.3;100.0;101550;;;;
2023/01/05 05:24:00;;;;;;;0.8;0.8;;;;;;;10.2;100.0;101550;;;;
2023/01/05 05:25:00;;;;;;;0.8;0.8;;;;;;;10.2;100.0;101550;;;;
2023/01/05 05:26:00;;;;;;;0.8;0.8;;;;;;;10.3;100.0;101550;;;;
2023/01/05 05:27:00;;;;;;;0.8;0.8;;;;;;;10.3;100.0;101550;;;;
2023/01/05 05:28:00;;;;;;;0.8;0.8;;;;;;;10.2;100.0;101560;;;;
2023/01/05 05:29:00;;;;;;;0.8;0.8;;;;;;;10.2;100.0;101560;;;;
2023/01/05 05:30:00;;;;;;;0.8;0.8;;;;;;;10.3;100.0;101560;;;;
2023/01/05 05:31:00;;;;;;;0.8;0.8;;;;;;;10.3;100.0;101560;;;;
2023/01/05 05:32:00;;;;;;;0.8;0.8;;;;;;;10.3;100.0;101550;;;;
2023/01/05 05:33:00;;;;;;;0.8;0.8;;;;;;;10.3;100.0;101550;;;;
2023/01/05 05:34:00;;;;;;;0.8;0.8;;;;;;;10.3;100.0;101570;;;;
2023/01/05 05:35:00;;;;;;;0.8;0.8;;;;;;;10.3;100.0;101570;;;;
2023/01/05 05:36:00;;;;;;;0.8;0.8;;;;;;;10.2;100.0;101550;;;;
2023/01/05 05:37:00;;;;;;;0.8;0.8;;;;;;;10.2;100.0;101550;;;;
2023/01/05 05:38:00;;;;;;;0.8;0.8;;;;;;;10.2;100.0;101560;;;;
2023/01/05 05:39:00;;;;;;;0.8;0.8;;;;;;;10.2;100.0;101560;;;;
2023/01/05 05:40:00;;;;;;;0.8;0.8;;;;;;;10.3;100.0;101560;;;;
2023/01/05 05:41:00;;;;;;;0.8;0.8;;;;;;;10.3;100.0;101560;;;;
2023/01/05 05:42:00;;;;;;;0.8;0.8;;;;;;;10.4;100.0;101570;;;;
2023/01/05 05:43:00;;;;;;;0.8;0.8;;;;;;;10.4;100.0;101570;;;;
2023/01/05 05:44:01;;;;;;;0.8;0.8;;;;;;;10.3;100.0;101570;;;;
2023/01/05 05:45:00;;;;;;;0.8;0.8;;;;;;;10.3;100.0;101570;;;;
2023/01/05 05:46:00;;;;;;;0.8;0.8;;;;;;;10.1;100.0;101570;;;;
2023/01/05 05:47:00;;;;;;;0.8;0.8;;;;;;;10.1;100.0;101570;;;;
2023/01/05 05:48:00;;;;;;;0.8;0.8;;;;;;;10.1;100.0;101570;;;;
2023/01/05 05:49:00;;;;;;;0.8;0.8;;;;;;;10.1;100.0;101570;;;;
2023/01/05 05:50:00;;;;;;;0.8;0.8;;;;;;;10.2;100.0;101580;;;;
2023/01/05 05:51:00;;;;;;;0.8;0.8;;;;;;;10.2;100.0;101580;;;;
2023/01/05 05:52:00;;;;;;;0.8;0.8;;;;;;;10.3;100.0;101580;;;;
2023/01/05 05:53:00;;;;;;;0.8;0.8;;;;;;;10.3;100.0;101580;;;;
2023/01/05 05:54:00;;;;;;;0.8;0.8;;;;;;;10.3;100.0;101580;;;;
2023/01/05 05:55:00;;;;;;;0.8;0.8;;;;;;;10.3;100.0;101580;;;;
2023/01/05 05:56:00;;;;;;;0.8;0.8;;;;;;;10.3;100.0;101580;;;;
2023/01/05 05:57:00;;;;;;;0.8;0.8;;;;;;;10.3;100.0;101580;;;;
2023/01/05 05:58:00;;;;;;;0.8;0.8;;;;;;;10.3;100.0;101580;;;;
2023/01/05 05:59:02;;;;;;;0.8;0.8;;;;;;;10.3;100.0;101580;;;;
2023/01/05 06:00:00;;;;;;;0.8;0.8;;;;;;;10.4;100.0;101590;;;;
2023/01/05 06:01:00;;;;;;;0.8;0.8;;;;;;;10.4;100.0;101590;;;;
2023/01/05 06:02:00;;;;;;;0.8;0.8;;;;;;;10.4;100.0;101600;;;;
2023/01/05 06:03:00;;;;;;;0.8;0.8;;;;;;;10.4;100.0;101600;;;;
2023/01/05 06:04:00;;;;;;;0.8;0.8;;;;;;;10.4;100.0;101590;;;;
2023/01/05 06:05:00;;;;;;;0.8;0.8;;;;;;;10.4;100.0;101590;;;;
2023/01/05 06:06:01;;;;;;;0.8;0.8;;;;;;;10.3;100.0;101600;;;;
2023/01/05 06:07:00;;;;;;;0.8;0.8;;;;;;;10.3;100.0;101600;;;;
2023/01/05 06:08:00;;;;;;;0.8;0.8;;;;;;;10.3;100.0;101600;;;;
2023/01/05 06:09:00;;;;;;;0.8;0.8;;;;;;;10.3;100.0;101600;;;;
2023/01/05 06:10:00;;;;;;;0.8;0.8;;;;;;;10.1;100.0;101610;;;;
2023/01/05 06:11:00;;;;;;;0.8;0.8;;;;;;;10.1;100.0;101610;;;;
2023/01/05 06:12:00;;;;;;;0.8;0.8;;;;;;;10.1;100.0;101600;;;;
2023/01/05 06:13:00;;;;;;;0.8;0.8;;;;;;;10.1;100.0;101600;;;;
2023/01/05 06:14:01;;;;;;;0.8;0.8;;;;;;;10.2;100.0;101610;;;;
2023/01/05 06:15:00;;;;;;;0.8;0.8;;;;;;;10.2;100.0;101610;;;;
2023/01/05 06:16:00;;;;;;;0.8;0.8;;;;;;;10.3;100.0;101610;;;;
2023/01/05 06:17:00;;;;;;;0.8;0.8;;;;;;;10.3;100.0;101610;;;;
2023/01/05 06:18:01;;;;;;;0.8;0.8;;;;;;;10.2;100.0;101610;;;;
2023/01/05 06:19:00;;;;;;;0.7;0.7;;;;;;;10.2;100.0;101610;;;;
2023/01/05 06:20:00;;;;;;;0.7;0.7;;;;;;;10.3;100.0;101620;;;;
2023/01/05 06:21:02;;;;;;;0.7;0.7;;;;;;;10.3;100.0;101620;;;;
2023/01/05 06:22:00;;;;;;;0.7;0.7;;;;;;;10.4;100.0;101620;;;;
2023/01/05 06:23:00;;;;;;;0.7;0.7;;;;;;;10.4;100.0;101620;;;;
2023/01/05 06:24:00;;;;;;;0.7;0.7;;;;;;;10.4;100.0;101620;;;;
2023/01/05 06:25:00;;;;;;;0.7;0.7;;;;;;;10.4;100.0;101620;;;;
2023/01/05 06:26:00;;;;;;;0.7;0.7;;;;;;;10.4;100.0;101630;;;;
2023/01/05 06:27:00;;;;;;;0.7;0.7;;;;;;;10.4;100.0;101630;;;;
2023/01/05 06:28:00;;;;;;;0.7;0.7;;;;;;;10.4;100.0;101630;;;;
2023/01/05 06:29:00;;;;;;;0.7;0.7;;;;;;;10.4;100.0;101630;;;;
2023/01/05 06:30:00;;;;;;;0.7;0.7;;;;;;;10.3;100.0;101640;;;;
2023/01/05 06:31:00;;;;;;;0.7;0.7;;;;;;;10.3;100.0;101640;;;;
2023/01/05 06:32:00;;;;;;;0.7;0.7;;;;;;;10.2;100.0;101640;;;;
2023/01/05 06:33:00;;;;;;;0.7;0.7;;;;;;;10.2;100.0;101640;;;;
2023/01/05 06:34:00;;;;;;;0.7;0.7;;;;;;;10.3;100.0;101630;;;;
2023/01/05 06:35:00;;;;;;;0.7;0.7;;;;;;;10.3;100.0;101630;;;;
2023/01/05 06:36:00;;;;;;;0.7;0.7;;;;;;;10.2;100.0;101640;;;;
2023/01/05 06:37:05;;;;;;;0.7;0.7;;;;;;;10.2;100.0;101640;;;;
2023/01/05 06:38:00;;;;;;;0.7;0.7;;;;;;;10.2;100.0;101640;;;;
2023/01/05 06:39:00;;;;;;;1.6;1.6;;;;;;;10.2;100.0;101640;;;;
2023/01/05 06:40:00;;;;;;;1.6;1.6;;;;;;;10.1;100.0;101640;;;;
2023/01/05 06:41:00;;;;;;;1.6;1.6;;;;;;;10.1;100.0;101640;;;;
2023/01/05 06:42:00;;;;;;;1.6;1.6;;;;;;;10.1;100.0;101630;;;;
2023/01/05 06:43:00;;;;;;;1.6;1.6;;;;;;;10.1;100.0;101630;;;;
2023/01/05 06:44:00;;;;;;;1.6;1.6;;;;;;;10.2;100.0;101640;;;;
2023/01/05 06:45:00;;;;;;;1.6;1.6;;;;;;;10.2;100.0;101640;;;;
2023/01/05 06:46:00;;;;;;;1.6;1.6;;;;;;;10.1;100.0;101630;;;;
2023/01/05 06:47:00;;;;;;;1.6;1.6;;;;;;;10.1;100.0;101630;;;;
2023/01/05 06:48:00;;;;;;;1.6;1.6;;;;;;;10.1;100.0;101640;;;;
2023/01/05 06:49:00;;;;;;;1.6;1.6;;;;;;;10.1;100.0;101640;;;;
2023/01/05 06:50:00;;;;;;;1.6;1.6;;;;;;;10.2;100.0;101650;;;;
2023/01/05 06:51:00;;;;;;;1.6;1.6;;;;;;;10.2;100.0;101650;;;;
2023/01/05 06:52:00;;;;;;;1.6;1.6;;;;;;;10.1;100.0;101650;;;;
2023/01/05 06:53:00;;;;;;;1.6;1.6;;;;;;;10.1;100.0;101650;;;;
2023/01/05 06:54:00;;;;;;;1.6;1.6;;;;;;;10.0;100.0;101660;;;;